sensor_id;sensor_type;location;lat;lon;timestamp;P1;durP1;ratioP1;P2;durP2;ratioP2
26512;SDS011;14186;53.822;10.152;2023-08-01T00:03:15;6.68;;;2.33;;
26512;SDS011;14186;53.822;10.152;2023-08-01T00:08:15;1.55;;;0.90;;
26512;SDS011;14186;53.822;10.152;2023-08-01T00:13:16;2.10;;;1.00;;
26512;SDS011;14186;53.822;10.152;2023-08-01T00:18:18;1.30;;;0.60;;
26512;SDS011;14186;53.822;10.152;2023-08-01T00:23:18;1.48;;;0.70;;
26512;SDS011;14186;53.822;10.152;2023-08-01T00:28:18;1.30;;;0.50;;
26512;SDS011;14186;53.822;10.152;2023-08-01T00:33:20;1.58;;;0.75;;
26512;SDS011;14186;53.822;10.152;2023-08-01T00:38:20;1.23;;;0.60;;
26512;SDS011;14186;53.822;10.152;2023-08-01T00:43:20;3.17;;;0.90;;
26512;SDS011;14186;53.822;10.152;2023-08-01T00:48:22;1.73;;;1.00;;
26512;SDS011;14186;53.822;10.152;2023-08-01T00:53:22;2.58;;;1.30;;
26512;SDS011;14186;53.822;10.152;2023-08-01T00:58:23;2.22;;;1.40;;
26512;SDS011;14186;53.822;10.152;2023-08-01T01:03:24;4.45;;;2.30;;
26512;SDS011;14186;53.822;10.152;2023-08-01T01:08:25;4.93;;;2.30;;
26512;SDS011;14186;53.822;10.152;2023-08-01T01:13:25;3.85;;;2.78;;
26512;SDS011;14186;53.822;10.152;2023-08-01T01:18:27;4.05;;;2.05;;
26512;SDS011;14186;53.822;10.152;2023-08-01T01:23:28;2.78;;;1.48;;
26512;SDS011;14186;53.822;10.152;2023-08-01T01:28:29;3.03;;;1.77;;
26512;SDS011;14186;53.822;10.152;2023-08-01T01:33:31;3.67;;;1.67;;
26512;SDS011;14186;53.822;10.152;2023-08-01T01:38:33;2.50;;;1.65;;
26512;SDS011;14186;53.822;10.152;2023-08-01T01:43:34;3.22;;;1.75;;
26512;SDS011;14186;53.822;10.152;2023-08-01T01:48:34;3.00;;;1.67;;
26512;SDS011;14186;53.822;10.152;2023-08-01T01:53:35;2.08;;;1.27;;
26512;SDS011;14186;53.822;10.152;2023-08-01T01:58:36;2.97;;;1.50;;
26512;SDS011;14186;53.822;10.152;2023-08-01T02:03:36;1.92;;;1.20;;
26512;SDS011;14186;53.822;10.152;2023-08-01T02:08:37;3.17;;;0.90;;
26512;SDS011;14186;53.822;10.152;2023-08-01T02:13:37;2.85;;;1.10;;
26512;SDS011;14186;53.822;10.152;2023-08-01T02:18:38;2.42;;;1.17;;
26512;SDS011;14186;53.822;10.152;2023-08-01T02:23:39;2.13;;;1.40;;
26512;SDS011;14186;53.822;10.152;2023-08-01T02:28:40;3.03;;;1.77;;
26512;SDS011;14186;53.822;10.152;2023-08-01T02:33:40;3.63;;;2.40;;
26512;SDS011;14186;53.822;10.152;2023-08-01T02:38:41;3.40;;;2.40;;
26512;SDS011;14186;53.822;10.152;2023-08-01T02:43:42;5.20;;;2.75;;
26512;SDS011;14186;53.822;10.152;2023-08-01T02:48:42;5.43;;;3.30;;
26512;SDS011;14186;53.822;10.152;2023-08-01T02:53:43;5.13;;;3.20;;
26512;SDS011;14186;53.822;10.152;2023-08-01T02:58:44;5.28;;;3.55;;
26512;SDS011;14186;53.822;10.152;2023-08-01T03:03:44;7.30;;;4.90;;
26512;SDS011;14186;53.822;10.152;2023-08-01T03:08:45;9.27;;;5.63;;
26512;SDS011;14186;53.822;10.152;2023-08-01T03:13:45;9.05;;;5.75;;
26512;SDS011;14186;53.822;10.152;2023-08-01T03:18:46;11.02;;;6.28;;
26512;SDS011;14186;53.822;10.152;2023-08-01T03:23:48;11.45;;;7.32;;
26512;SDS011;14186;53.822;10.152;2023-08-01T03:28:48;12.40;;;7.60;;
26512;SDS011;14186;53.822;10.152;2023-08-01T03:33:48;9.05;;;6.60;;
26512;SDS011;14186;53.822;10.152;2023-08-01T03:38:50;10.40;;;7.97;;
26512;SDS011;14186;53.822;10.152;2023-08-01T03:43:50;10.43;;;8.18;;
26512;SDS011;14186;53.822;10.152;2023-08-01T03:48:50;11.88;;;8.73;;
26512;SDS011;14186;53.822;10.152;2023-08-01T03:53:52;14.07;;;8.20;;
26512;SDS011;14186;53.822;10.152;2023-08-01T03:58:52;14.65;;;8.82;;
26512;SDS011;14186;53.822;10.152;2023-08-01T04:03:52;13.80;;;8.95;;
26512;SDS011;14186;53.822;10.152;2023-08-01T04:08:54;12.00;;;9.23;;
26512;SDS011;14186;53.822;10.152;2023-08-01T04:13:54;14.10;;;9.88;;
26512;SDS011;14186;53.822;10.152;2023-08-01T04:18:54;12.80;;;9.10;;
26512;SDS011;14186;53.822;10.152;2023-08-01T04:23:56;16.13;;;9.88;;
26512;SDS011;14186;53.822;10.152;2023-08-01T04:28:56;12.88;;;9.43;;
26512;SDS011;14186;53.822;10.152;2023-08-01T04:33:56;14.77;;;10.32;;
26512;SDS011;14186;53.822;10.152;2023-08-01T04:38:57;13.70;;;9.30;;
26512;SDS011;14186;53.822;10.152;2023-08-01T04:43:58;14.38;;;9.93;;
26512;SDS011;14186;53.822;10.152;2023-08-01T04:48:58;13.25;;;9.60;;
26512;SDS011;14186;53.822;10.152;2023-08-01T04:54:00;14.43;;;10.27;;
26512;SDS011;14186;53.822;10.152;2023-08-01T04:59:00;13.95;;;10.00;;
26512;SDS011;14186;53.822;10.152;2023-08-01T05:04:00;13.13;;;9.80;;
26512;SDS011;14186;53.822;10.152;2023-08-01T05:09:02;12.55;;;9.27;;
26512;SDS011;14186;53.822;10.152;2023-08-01T05:14:02;14.98;;;9.35;;
26512;SDS011;14186;53.822;10.152;2023-08-01T05:19:03;12.40;;;9.07;;
26512;SDS011;14186;53.822;10.152;2023-08-01T05:24:05;14.35;;;9.00;;
26512;SDS011;14186;53.822;10.152;2023-08-01T05:29:05;12.07;;;8.30;;
26512;SDS011;14186;53.822;10.152;2023-08-01T05:34:06;11.30;;;8.52;;
26512;SDS011;14186;53.822;10.152;2023-08-01T05:39:07;13.70;;;7.90;;
26512;SDS011;14186;53.822;10.152;2023-08-01T05:44:07;12.98;;;7.43;;
26512;SDS011;14186;53.822;10.152;2023-08-01T05:49:08;12.63;;;7.78;;
26512;SDS011;14186;53.822;10.152;2023-08-01T05:54:09;14.25;;;7.72;;
26512;SDS011;14186;53.822;10.152;2023-08-01T05:59:10;9.20;;;6.07;;
26512;SDS011;14186;53.822;10.152;2023-08-01T06:04:10;10.70;;;5.95;;
26512;SDS011;14186;53.822;10.152;2023-08-01T06:09:11;8.15;;;5.88;;
26512;SDS011;14186;53.822;10.152;2023-08-01T06:14:12;8.75;;;5.60;;
26512;SDS011;14186;53.822;10.152;2023-08-01T06:19:12;6.88;;;5.03;;
26512;SDS011;14186;53.822;10.152;2023-08-01T06:24:13;7.45;;;5.00;;
26512;SDS011;14186;53.822;10.152;2023-08-01T06:29:14;8.38;;;4.43;;
26512;SDS011;14186;53.822;10.152;2023-08-01T06:34:14;9.10;;;4.20;;
26512;SDS011;14186;53.822;10.152;2023-08-01T06:39:15;7.30;;;3.92;;
26512;SDS011;14186;53.822;10.152;2023-08-01T06:44:16;7.45;;;3.70;;
26512;SDS011;14186;53.822;10.152;2023-08-01T06:49:16;8.93;;;3.95;;
26512;SDS011;14186;53.822;10.152;2023-08-01T06:54:17;9.45;;;3.70;;
26512;SDS011;14186;53.822;10.152;2023-08-01T06:59:18;10.50;;;3.60;;
26512;SDS011;14186;53.822;10.152;2023-08-01T07:04:18;10.35;;;3.78;;
26512;SDS011;14186;53.822;10.152;2023-08-01T07:09:19;7.45;;;3.40;;
26512;SDS011;14186;53.822;10.152;2023-08-01T07:14:20;6.45;;;3.05;;
26512;SDS011;14186;53.822;10.152;2023-08-01T07:19:20;9.40;;;3.92;;
26512;SDS011;14186;53.822;10.152;2023-08-01T07:24:21;6.25;;;2.72;;
26512;SDS011;14186;53.822;10.152;2023-08-01T07:29:22;7.75;;;3.42;;
26512;SDS011;14186;53.822;10.152;2023-08-01T07:34:22;5.45;;;2.30;;
26512;SDS011;14186;53.822;10.152;2023-08-01T07:39:23;8.45;;;3.10;;
26512;SDS011;14186;53.822;10.152;2023-08-01T07:44:23;4.20;;;2.47;;
26512;SDS011;14186;53.822;10.152;2023-08-01T07:49:24;7.28;;;2.47;;
26512;SDS011;14186;53.822;10.152;2023-08-01T07:54:25;10.18;;;2.92;;
26512;SDS011;14186;53.822;10.152;2023-08-01T07:59:25;6.78;;;2.40;;
26512;SDS011;14186;53.822;10.152;2023-08-01T08:04:26;8.68;;;2.60;;
26512;SDS011;14186;53.822;10.152;2023-08-01T08:09:27;5.45;;;2.30;;
26512;SDS011;14186;53.822;10.152;2023-08-01T08:14:27;5.60;;;2.38;;
26512;SDS011;14186;53.822;10.152;2023-08-01T08:19:28;5.50;;;2.35;;
26512;SDS011;14186;53.822;10.152;2023-08-01T08:24:29;7.53;;;2.80;;
26512;SDS011;14186;53.822;10.152;2023-08-01T08:29:29;7.63;;;2.45;;
26512;SDS011;14186;53.822;10.152;2023-08-01T08:34:30;8.05;;;3.75;;
26512;SDS011;14186;53.822;10.152;2023-08-01T08:39:31;5.90;;;2.35;;
26512;SDS011;14186;53.822;10.152;2023-08-01T08:44:32;7.28;;;2.03;;
26512;SDS011;14186;53.822;10.152;2023-08-01T08:49:34;8.10;;;2.30;;
26512;SDS011;14186;53.822;10.152;2023-08-01T08:54:36;4.70;;;1.80;;
26512;SDS011;14186;53.822;10.152;2023-08-01T08:59:37;7.65;;;2.50;;
26512;SDS011;14186;53.822;10.152;2023-08-01T09:04:38;4.95;;;2.45;;
26512;SDS011;14186;53.822;10.152;2023-08-01T09:09:39;5.18;;;2.30;;
26512;SDS011;14186;53.822;10.152;2023-08-01T09:14:40;5.18;;;1.60;;
26512;SDS011;14186;53.822;10.152;2023-08-01T09:19:40;6.50;;;1.90;;
26512;SDS011;14186;53.822;10.152;2023-08-01T09:24:51;9.30;;;1.80;;
26512;SDS011;14186;53.822;10.152;2023-08-01T09:29:51;3.03;;;1.00;;
26512;SDS011;14186;53.822;10.152;2023-08-01T09:34:57;6.13;;;1.40;;
26512;SDS011;14186;53.822;10.152;2023-08-01T09:39:59;7.95;;;1.77;;
26512;SDS011;14186;53.822;10.152;2023-08-01T09:44:59;2.58;;;1.30;;
26512;SDS011;14186;53.822;10.152;2023-08-01T09:50:01;4.20;;;1.60;;
26512;SDS011;14186;53.822;10.152;2023-08-01T09:55:03;2.85;;;1.52;;
26512;SDS011;14186;53.822;10.152;2023-08-01T10:00:04;3.63;;;1.50;;
26512;SDS011;14186;53.822;10.152;2023-08-01T10:05:04;3.53;;;1.58;;
26512;SDS011;14186;53.822;10.152;2023-08-01T10:10:07;3.38;;;1.40;;
26512;SDS011;14186;53.822;10.152;2023-08-01T10:15:08;4.57;;;1.67;;
26512;SDS011;14186;53.822;10.152;2023-08-01T10:20:09;6.90;;;1.90;;
26512;SDS011;14186;53.822;10.152;2023-08-01T10:25:11;4.40;;;1.90;;
26512;SDS011;14186;53.822;10.152;2023-08-01T10:30:12;3.03;;;1.73;;
26512;SDS011;14186;53.822;10.152;2023-08-01T10:35:12;5.13;;;1.60;;
26512;SDS011;14186;53.822;10.152;2023-08-01T10:40:13;3.45;;;1.10;;
26512;SDS011;14186;53.822;10.152;2023-08-01T10:45:20;3.50;;;1.23;;
26512;SDS011;14186;53.822;10.152;2023-08-01T10:50:21;2.42;;;1.10;;
26512;SDS011;14186;53.822;10.152;2023-08-01T10:55:22;3.38;;;0.80;;
26512;SDS011;14186;53.822;10.152;2023-08-01T11:00:23;3.17;;;0.70;;
26512;SDS011;14186;53.822;10.152;2023-08-01T11:05:23;1.95;;;0.60;;
26512;SDS011;14186;53.822;10.152;2023-08-01T11:10:25;3.00;;;0.50;;
26512;SDS011;14186;53.822;10.152;2023-08-01T11:15:26;1.60;;;0.50;;
26512;SDS011;14186;53.822;10.152;2023-08-01T11:20:26;4.50;;;0.60;;
26512;SDS011;14186;53.822;10.152;2023-08-01T11:25:34;3.00;;;0.52;;
26512;SDS011;14186;53.822;10.152;2023-08-01T11:30:34;2.15;;;0.50;;
26512;SDS011;14186;53.822;10.152;2023-08-01T11:35:35;2.40;;;0.63;;
26512;SDS011;14186;53.822;10.152;2023-08-01T11:40:36;1.80;;;0.57;;
26512;SDS011;14186;53.822;10.152;2023-08-01T11:45:37;2.95;;;0.77;;
26512;SDS011;14186;53.822;10.152;2023-08-01T11:50:37;1.85;;;0.47;;
26512;SDS011;14186;53.822;10.152;2023-08-01T11:55:39;0.93;;;0.43;;
26512;SDS011;14186;53.822;10.152;2023-08-01T12:00:40;1.02;;;0.40;;
26512;SDS011;14186;53.822;10.152;2023-08-01T12:05:40;0.90;;;0.35;;
26512;SDS011;14186;53.822;10.152;2023-08-01T12:10:43;1.17;;;0.35;;
26512;SDS011;14186;53.822;10.152;2023-08-01T12:15:43;2.00;;;0.40;;
26512;SDS011;14186;53.822;10.152;2023-08-01T12:20:43;1.73;;;0.90;;
26512;SDS011;14186;53.822;10.152;2023-08-01T12:25:45;1.55;;;0.30;;
26512;SDS011;14186;53.822;10.152;2023-08-01T12:30:45;1.55;;;0.38;;
26512;SDS011;14186;53.822;10.152;2023-08-01T12:35:46;1.13;;;0.30;;
26512;SDS011;14186;53.822;10.152;2023-08-01T12:40:47;1.40;;;0.40;;
26512;SDS011;14186;53.822;10.152;2023-08-01T12:45:47;1.85;;;0.50;;
26512;SDS011;14186;53.822;10.152;2023-08-01T12:50:48;4.28;;;0.40;;
26512;SDS011;14186;53.822;10.152;2023-08-01T12:55:50;1.58;;;0.70;;
26512;SDS011;14186;53.822;10.152;2023-08-01T13:00:50;1.08;;;0.52;;
26512;SDS011;14186;53.822;10.152;2023-08-01T13:05:51;1.73;;;0.50;;
26512;SDS011;14186;53.822;10.152;2023-08-01T13:10:52;1.48;;;0.40;;
26512;SDS011;14186;53.822;10.152;2023-08-01T13:15:52;3.33;;;0.40;;
26512;SDS011;14186;53.822;10.152;2023-08-01T13:20:52;1.70;;;0.45;;
26512;SDS011;14186;53.822;10.152;2023-08-01T13:25:54;1.17;;;0.40;;
26512;SDS011;14186;53.822;10.152;2023-08-01T13:30:54;1.70;;;0.40;;
26512;SDS011;14186;53.822;10.152;2023-08-01T13:35:54;0.75;;;0.40;;
26512;SDS011;14186;53.822;10.152;2023-08-01T13:40:58;0.70;;;0.40;;
26512;SDS011;14186;53.822;10.152;2023-08-01T13:45:58;1.48;;;0.40;;
26512;SDS011;14186;53.822;10.152;2023-08-01T13:50:58;2.15;;;0.30;;
26512;SDS011;14186;53.822;10.152;2023-08-01T13:56:00;2.53;;;0.35;;
26512;SDS011;14186;53.822;10.152;2023-08-01T14:01:03;1.42;;;0.30;;
26512;SDS011;14186;53.822;10.152;2023-08-01T14:06:04;0.45;;;0.20;;
26512;SDS011;14186;53.822;10.152;2023-08-01T14:11:06;21.15;;;3.28;;
26512;SDS011;14186;53.822;10.152;2023-08-01T14:16:07;12.10;;;1.38;;
26512;SDS011;14186;53.822;10.152;2023-08-01T14:21:07;0.30;;;0.20;;
26512;SDS011;14186;53.822;10.152;2023-08-01T14:26:09;0.83;;;0.20;;
26512;SDS011;14186;53.822;10.152;2023-08-01T14:31:09;0.70;;;0.38;;
26512;SDS011;14186;53.822;10.152;2023-08-01T14:36:09;1.00;;;0.77;;
26512;SDS011;14186;53.822;10.152;2023-08-01T14:41:11;3.38;;;0.93;;
26512;SDS011;14186;53.822;10.152;2023-08-01T14:46:11;1.55;;;0.45;;
26512;SDS011;14186;53.822;10.152;2023-08-01T14:51:11;1.35;;;0.38;;
26512;SDS011;14186;53.822;10.152;2023-08-01T14:56:13;2.15;;;0.45;;
26512;SDS011;14186;53.822;10.152;2023-08-01T15:01:13;1.85;;;0.22;;
26512;SDS011;14186;53.822;10.152;2023-08-01T15:06:13;3.88;;;0.93;;
26512;SDS011;14186;53.822;10.152;2023-08-01T15:11:15;3.80;;;0.80;;
26512;SDS011;14186;53.822;10.152;2023-08-01T15:16:15;2.42;;;0.57;;
26512;SDS011;14186;53.822;10.152;2023-08-01T15:21:15;0.85;;;0.30;;
26512;SDS011;14186;53.822;10.152;2023-08-01T15:26:17;4.15;;;0.70;;
26512;SDS011;14186;53.822;10.152;2023-08-01T15:31:17;2.45;;;0.30;;
26512;SDS011;14186;53.822;10.152;2023-08-01T15:36:17;3.20;;;0.60;;
26512;SDS011;14186;53.822;10.152;2023-08-01T15:41:26;2.85;;;0.40;;
26512;SDS011;14186;53.822;10.152;2023-08-01T15:46:28;3.70;;;0.50;;
26512;SDS011;14186;53.822;10.152;2023-08-01T15:51:28;2.40;;;0.57;;
26512;SDS011;14186;53.822;10.152;2023-08-01T15:56:29;4.57;;;0.40;;
26512;SDS011;14186;53.822;10.152;2023-08-01T16:01:30;0.40;;;0.30;;
26512;SDS011;14186;53.822;10.152;2023-08-01T16:06:30;0.82;;;0.20;;
26512;SDS011;14186;53.822;10.152;2023-08-01T16:11:32;4.13;;;0.52;;
26512;SDS011;14186;53.822;10.152;2023-08-01T16:16:32;2.40;;;0.55;;
26512;SDS011;14186;53.822;10.152;2023-08-01T16:21:32;1.27;;;0.40;;
26512;SDS011;14186;53.822;10.152;2023-08-01T16:26:33;2.08;;;0.40;;
26512;SDS011;14186;53.822;10.152;2023-08-01T16:31:34;0.95;;;0.30;;
26512;SDS011;14186;53.822;10.152;2023-08-01T16:36:34;2.67;;;0.45;;
26512;SDS011;14186;53.822;10.152;2023-08-01T16:41:35;3.40;;;0.70;;
26512;SDS011;14186;53.822;10.152;2023-08-01T16:46:36;2.80;;;0.65;;
26512;SDS011;14186;53.822;10.152;2023-08-01T16:51:36;2.05;;;0.30;;
26512;SDS011;14186;53.822;10.152;2023-08-01T16:56:38;1.92;;;0.40;;
26512;SDS011;14186;53.822;10.152;2023-08-01T17:01:38;3.92;;;0.70;;
26512;SDS011;14186;53.822;10.152;2023-08-01T17:06:38;2.88;;;0.60;;
26512;SDS011;14186;53.822;10.152;2023-08-01T17:11:39;4.82;;;0.70;;
26512;SDS011;14186;53.822;10.152;2023-08-01T17:16:40;7.40;;;0.85;;
26512;SDS011;14186;53.822;10.152;2023-08-01T17:21:40;2.13;;;0.68;;
26512;SDS011;14186;53.822;10.152;2023-08-01T17:26:42;5.18;;;0.60;;
26512;SDS011;14186;53.822;10.152;2023-08-01T17:31:42;3.72;;;0.82;;
26512;SDS011;14186;53.822;10.152;2023-08-01T17:36:43;7.30;;;1.60;;
26512;SDS011;14186;53.822;10.152;2023-08-01T17:41:44;2.97;;;0.63;;
26512;SDS011;14186;53.822;10.152;2023-08-01T17:46:44;3.95;;;0.93;;
26512;SDS011;14186;53.822;10.152;2023-08-01T17:51:45;5.93;;;1.00;;
26512;SDS011;14186;53.822;10.152;2023-08-01T17:56:46;5.57;;;0.95;;
26512;SDS011;14186;53.822;10.152;2023-08-01T18:01:46;2.45;;;0.70;;
26512;SDS011;14186;53.822;10.152;2023-08-01T18:06:47;1.67;;;0.50;;
26512;SDS011;14186;53.822;10.152;2023-08-01T18:11:48;6.57;;;1.23;;
26512;SDS011;14186;53.822;10.152;2023-08-01T18:16:49;4.82;;;1.15;;
26512;SDS011;14186;53.822;10.152;2023-08-01T18:21:49;1.90;;;0.60;;
26512;SDS011;14186;53.822;10.152;2023-08-01T18:26:53;8.90;;;1.15;;
26512;SDS011;14186;53.822;10.152;2023-08-01T18:31:53;4.00;;;0.70;;
26512;SDS011;14186;53.822;10.152;2023-08-01T18:36:53;3.35;;;0.80;;
26512;SDS011;14186;53.822;10.152;2023-08-01T18:41:55;4.15;;;0.65;;
26512;SDS011;14186;53.822;10.152;2023-08-01T18:46:55;3.15;;;0.88;;
26512;SDS011;14186;53.822;10.152;2023-08-01T18:51:55;2.72;;;0.70;;
26512;SDS011;14186;53.822;10.152;2023-08-01T18:56:57;4.35;;;0.75;;
26512;SDS011;14186;53.822;10.152;2023-08-01T19:01:57;4.22;;;0.73;;
26512;SDS011;14186;53.822;10.152;2023-08-01T19:06:57;4.95;;;1.00;;
26512;SDS011;14186;53.822;10.152;2023-08-01T19:12:03;3.05;;;1.25;;
26512;SDS011;14186;53.822;10.152;2023-08-01T19:17:04;3.63;;;1.10;;
26512;SDS011;14186;53.822;10.152;2023-08-01T19:22:04;2.88;;;1.08;;
26512;SDS011;14186;53.822;10.152;2023-08-01T19:27:06;3.78;;;0.90;;
26512;SDS011;14186;53.822;10.152;2023-08-01T19:32:07;5.78;;;1.40;;
26512;SDS011;14186;53.822;10.152;2023-08-01T19:37:07;2.85;;;1.65;;
26512;SDS011;14186;53.822;10.152;2023-08-01T19:42:08;4.30;;;1.20;;
26512;SDS011;14186;53.822;10.152;2023-08-01T19:47:09;8.70;;;1.52;;
26512;SDS011;14186;53.822;10.152;2023-08-01T19:52:09;3.88;;;1.40;;
26512;SDS011;14186;53.822;10.152;2023-08-01T19:57:10;5.07;;;1.38;;
26512;SDS011;14186;53.822;10.152;2023-08-01T20:02:11;8.02;;;1.38;;
26512;SDS011;14186;53.822;10.152;2023-08-01T20:07:11;3.00;;;1.15;;
26512;SDS011;14186;53.822;10.152;2023-08-01T20:12:12;4.47;;;1.10;;
26512;SDS011;14186;53.822;10.152;2023-08-01T20:17:13;4.35;;;1.33;;
26512;SDS011;14186;53.822;10.152;2023-08-01T20:22:13;3.58;;;1.67;;
26512;SDS011;14186;53.822;10.152;2023-08-01T20:27:15;2.80;;;1.30;;
26512;SDS011;14186;53.822;10.152;2023-08-01T20:32:15;4.22;;;1.15;;
26512;SDS011;14186;53.822;10.152;2023-08-01T20:37:15;2.42;;;1.10;;
26512;SDS011;14186;53.822;10.152;2023-08-01T20:42:17;3.83;;;1.42;;
26512;SDS011;14186;53.822;10.152;2023-08-01T20:47:17;2.13;;;1.10;;
26512;SDS011;14186;53.822;10.152;2023-08-01T20:52:18;4.07;;;1.20;;
26512;SDS011;14186;53.822;10.152;2023-08-01T20:57:19;2.40;;;1.30;;
26512;SDS011;14186;53.822;10.152;2023-08-01T21:02:19;3.50;;;1.20;;
26512;SDS011;14186;53.822;10.152;2023-08-01T21:07:20;3.78;;;1.30;;
26512;SDS011;14186;53.822;10.152;2023-08-01T21:12:22;2.70;;;1.05;;
26512;SDS011;14186;53.822;10.152;2023-08-01T21:17:22;3.60;;;1.30;;
26512;SDS011;14186;53.822;10.152;2023-08-01T21:22:22;2.30;;;0.90;;
26512;SDS011;14186;53.822;10.152;2023-08-01T21:27:24;5.05;;;1.25;;
26512;SDS011;14186;53.822;10.152;2023-08-01T21:32:24;5.10;;;1.30;;
26512;SDS011;14186;53.822;10.152;2023-08-01T21:37:24;3.50;;;1.17;;
26512;SDS011;14186;53.822;10.152;2023-08-01T21:42:26;3.85;;;1.42;;
26512;SDS011;14186;53.822;10.152;2023-08-01T21:47:26;2.25;;;1.13;;
26512;SDS011;14186;53.822;10.152;2023-08-01T21:52:26;2.67;;;1.13;;
26512;SDS011;14186;53.822;10.152;2023-08-01T21:57:28;6.38;;;1.30;;
26512;SDS011;14186;53.822;10.152;2023-08-01T22:02:28;3.67;;;1.30;;
26512;SDS011;14186;53.822;10.152;2023-08-01T22:07:28;4.25;;;1.33;;
26512;SDS011;14186;53.822;10.152;2023-08-01T22:12:30;2.10;;;1.10;;
26512;SDS011;14186;53.822;10.152;2023-08-01T22:17:30;3.85;;;1.33;;
26512;SDS011;14186;53.822;10.152;2023-08-01T22:22:30;3.92;;;1.30;;
26512;SDS011;14186;53.822;10.152;2023-08-01T22:27:32;4.07;;;1.10;;
26512;SDS011;14186;53.822;10.152;2023-08-01T22:32:32;3.33;;;1.20;;
26512;SDS011;14186;53.822;10.152;2023-08-01T22:37:32;2.83;;;1.52;;
26512;SDS011;14186;53.822;10.152;2023-08-01T22:42:34;3.20;;;1.30;;
26512;SDS011;14186;53.822;10.152;2023-08-01T22:47:35;5.75;;;1.88;;
26512;SDS011;14186;53.822;10.152;2023-08-01T22:52:35;2.83;;;1.40;;
26512;SDS011;14186;53.822;10.152;2023-08-01T22:57:37;4.20;;;1.13;;
26512;SDS011;14186;53.822;10.152;2023-08-01T23:02:37;6.85;;;1.50;;
26512;SDS011;14186;53.822;10.152;2023-08-01T23:07:37;3.80;;;1.70;;
26512;SDS011;14186;53.822;10.152;2023-08-01T23:12:39;5.72;;;2.50;;
26512;SDS011;14186;53.822;10.152;2023-08-01T23:17:39;3.33;;;1.33;;
26512;SDS011;14186;53.822;10.152;2023-08-01T23:22:39;6.60;;;1.75;;
26512;SDS011;14186;53.822;10.152;2023-08-01T23:27:41;3.90;;;1.30;;
26512;SDS011;14186;53.822;10.152;2023-08-01T23:32:41;3.05;;;1.50;;
26512;SDS011;14186;53.822;10.152;2023-08-01T23:37:41;6.38;;;1.98;;
26512;SDS011;14186;53.822;10.152;2023-08-01T23:42:43;2.13;;;1.40;;
26512;SDS011;14186;53.822;10.152;2023-08-01T23:47:43;5.88;;;1.70;;
26512;SDS011;14186;53.822;10.152;2023-08-01T23:52:43;5.40;;;1.67;;
26512;SDS011;14186;53.822;10.152;2023-08-01T23:57:45;6.05;;;1.63;;
